sensor_id;sensor_type;location;lat;lon;timestamp;temperature;humidity
45837;DHT22;31548;51.420;-0.040;2022-09-29T00:01:07;7.80;99.90
45837;DHT22;31548;51.420;-0.040;2022-09-29T00:03:36;7.70;99.90
45837;DHT22;31548;51.420;-0.040;2022-09-29T00:06:03;7.70;99.90
45837;DHT22;31548;51.420;-0.040;2022-09-29T00:08:36;7.70;99.90
45837;DHT22;31548;51.420;-0.040;2022-09-29T00:11:13;7.70;99.90
45837;DHT22;31548;51.420;-0.040;2022-09-29T00:13:41;7.70;99.90
45837;DHT22;31548;51.420;-0.040;2022-09-29T00:16:09;7.70;99.90
45837;DHT22;31548;51.420;-0.040;2022-09-29T00:18:36;7.60;99.90
45837;DHT22;31548;51.420;-0.040;2022-09-29T00:21:07;7.60;99.90
45837;DHT22;31548;51.420;-0.040;2022-09-29T00:23:35;7.60;99.90
45837;DHT22;31548;51.420;-0.040;2022-09-29T00:26:06;7.60;99.90
45837;DHT22;31548;51.420;-0.040;2022-09-29T00:28:35;7.50;99.90
45837;DHT22;31548;51.420;-0.040;2022-09-29T00:31:05;7.50;99.90
45837;DHT22;31548;51.420;-0.040;2022-09-29T00:33:35;7.50;99.90
45837;DHT22;31548;51.420;-0.040;2022-09-29T00:36:05;7.50;99.90
45837;DHT22;31548;51.420;-0.040;2022-09-29T00:38:33;7.50;99.90
45837;DHT22;31548;51.420;-0.040;2022-09-29T00:41:02;7.50;99.90
45837;DHT22;31548;51.420;-0.040;2022-09-29T00:49:03;7.40;99.90
45837;DHT22;31548;51.420;-0.040;2022-09-29T00:51:33;7.30;99.90
45837;DHT22;31548;51.420;-0.040;2022-09-29T00:54:01;7.30;99.90
45837;DHT22;31548;51.420;-0.040;2022-09-29T00:56:29;7.20;99.90
45837;DHT22;31548;51.420;-0.040;2022-09-29T00:59:03;7.20;99.90
45837;DHT22;31548;51.420;-0.040;2022-09-29T01:01:31;7.20;99.90
45837;DHT22;31548;51.420;-0.040;2022-09-29T01:04:13;7.20;99.90
45837;DHT22;31548;51.420;-0.040;2022-09-29T01:06:54;7.20;99.90
45837;DHT22;31548;51.420;-0.040;2022-09-29T01:09:31;7.20;99.90
45837;DHT22;31548;51.420;-0.040;2022-09-29T01:12:00;7.20;99.90
45837;DHT22;31548;51.420;-0.040;2022-09-29T01:14:28;7.10;99.90
45837;DHT22;31548;51.420;-0.040;2022-09-29T01:16:56;7.10;99.90
45837;DHT22;31548;51.420;-0.040;2022-09-29T01:22:40;7.10;99.90
45837;DHT22;31548;51.420;-0.040;2022-09-29T01:39:55;6.90;99.90
45837;DHT22;31548;51.420;-0.040;2022-09-29T01:42:33;6.90;99.90
45837;DHT22;31548;51.420;-0.040;2022-09-29T01:45:13;6.90;99.90
45837;DHT22;31548;51.420;-0.040;2022-09-29T01:47:44;6.80;99.90
45837;DHT22;31548;51.420;-0.040;2022-09-29T01:50:19;6.80;99.90
45837;DHT22;31548;51.420;-0.040;2022-09-29T01:52:53;6.80;99.90
45837;DHT22;31548;51.420;-0.040;2022-09-29T01:55:25;6.80;99.90
45837;DHT22;31548;51.420;-0.040;2022-09-29T01:58:26;6.70;99.90
45837;DHT22;31548;51.420;-0.040;2022-09-29T02:00:59;6.70;99.90
45837;DHT22;31548;51.420;-0.040;2022-09-29T02:03:36;6.80;99.90
45837;DHT22;31548;51.420;-0.040;2022-09-29T02:06:20;6.70;99.90
45837;DHT22;31548;51.420;-0.040;2022-09-29T02:08:55;6.70;99.90
45837;DHT22;31548;51.420;-0.040;2022-09-29T02:11:23;6.70;99.90
45837;DHT22;31548;51.420;-0.040;2022-09-29T02:13:55;6.70;99.90
45837;DHT22;31548;51.420;-0.040;2022-09-29T02:16:28;6.70;99.90
45837;DHT22;31548;51.420;-0.040;2022-09-29T02:19:02;6.60;99.90
45837;DHT22;31548;51.420;-0.040;2022-09-29T02:21:31;6.60;99.90
45837;DHT22;31548;51.420;-0.040;2022-09-29T02:23:58;6.60;99.90
45837;DHT22;31548;51.420;-0.040;2022-09-29T02:26:29;6.60;99.90
45837;DHT22;31548;51.420;-0.040;2022-09-29T02:29:03;6.50;99.90
45837;DHT22;31548;51.420;-0.040;2022-09-29T02:31:32;6.50;99.90
45837;DHT22;31548;51.420;-0.040;2022-09-29T02:34:00;6.50;99.90
45837;DHT22;31548;51.420;-0.040;2022-09-29T02:36:35;6.50;99.90
45837;DHT22;31548;51.420;-0.040;2022-09-29T02:42:30;6.50;99.90
45837;DHT22;31548;51.420;-0.040;2022-09-29T02:50:35;6.40;99.90
45837;DHT22;31548;51.420;-0.040;2022-09-29T02:58:59;6.40;99.90
45837;DHT22;31548;51.420;-0.040;2022-09-29T03:01:30;6.40;99.90
45837;DHT22;31548;51.420;-0.040;2022-09-29T03:03:58;6.40;99.90
45837;DHT22;31548;51.420;-0.040;2022-09-29T03:06:30;6.30;99.90
45837;DHT22;31548;51.420;-0.040;2022-09-29T03:08:58;6.30;99.90
45837;DHT22;31548;51.420;-0.040;2022-09-29T03:11:25;6.30;99.90
45837;DHT22;31548;51.420;-0.040;2022-09-29T03:13:52;6.40;99.90
45837;DHT22;31548;51.420;-0.040;2022-09-29T03:16:20;6.30;99.90
45837;DHT22;31548;51.420;-0.040;2022-09-29T03:18:47;6.30;99.90
45837;DHT22;31548;51.420;-0.040;2022-09-29T03:21:15;6.40;99.90
45837;DHT22;31548;51.420;-0.040;2022-09-29T03:23:42;6.40;99.90
45837;DHT22;31548;51.420;-0.040;2022-09-29T03:26:09;6.40;99.90
45837;DHT22;31548;51.420;-0.040;2022-09-29T03:28:36;6.50;99.90
45837;DHT22;31548;51.420;-0.040;2022-09-29T03:31:06;6.50;99.90
45837;DHT22;31548;51.420;-0.040;2022-09-29T03:33:36;6.50;99.90
45837;DHT22;31548;51.420;-0.040;2022-09-29T03:36:05;6.50;99.90
45837;DHT22;31548;51.420;-0.040;2022-09-29T03:38:32;6.50;99.90
45837;DHT22;31548;51.420;-0.040;2022-09-29T03:41:00;6.50;99.90
45837;DHT22;31548;51.420;-0.040;2022-09-29T03:43:27;6.40;99.90
45837;DHT22;31548;51.420;-0.040;2022-09-29T03:45:56;6.40;99.90
45837;DHT22;31548;51.420;-0.040;2022-09-29T03:48:24;6.40;99.90
45837;DHT22;31548;51.420;-0.040;2022-09-29T03:50:53;6.30;99.90
45837;DHT22;31548;51.420;-0.040;2022-09-29T03:53:21;6.30;99.90
45837;DHT22;31548;51.420;-0.040;2022-09-29T03:55:49;6.30;99.90
45837;DHT22;31548;51.420;-0.040;2022-09-29T03:58:17;6.20;99.90
45837;DHT22;31548;51.420;-0.040;2022-09-29T04:00:47;6.20;99.90
45837;DHT22;31548;51.420;-0.040;2022-09-29T04:03:15;6.20;99.90
45837;DHT22;31548;51.420;-0.040;2022-09-29T04:05:47;6.10;99.90
45837;DHT22;31548;51.420;-0.040;2022-09-29T04:08:14;6.10;99.90
45837;DHT22;31548;51.420;-0.040;2022-09-29T04:10:44;6.10;99.90
45837;DHT22;31548;51.420;-0.040;2022-09-29T04:13:11;6.10;99.90
45837;DHT22;31548;51.420;-0.040;2022-09-29T04:15:45;6.10;99.90
45837;DHT22;31548;51.420;-0.040;2022-09-29T04:18:12;6.10;99.90
45837;DHT22;31548;51.420;-0.040;2022-09-29T04:20:40;6.10;99.90
45837;DHT22;31548;51.420;-0.040;2022-09-29T04:23:08;6.00;99.90
45837;DHT22;31548;51.420;-0.040;2022-09-29T04:25:35;6.00;99.90
45837;DHT22;31548;51.420;-0.040;2022-09-29T04:28:02;6.00;99.90
45837;DHT22;31548;51.420;-0.040;2022-09-29T04:30:30;6.00;99.90
45837;DHT22;31548;51.420;-0.040;2022-09-29T04:32:57;6.00;99.90
45837;DHT22;31548;51.420;-0.040;2022-09-29T04:35:24;6.00;99.90
45837;DHT22;31548;51.420;-0.040;2022-09-29T04:37:55;6.00;99.90
45837;DHT22;31548;51.420;-0.040;2022-09-29T04:40:24;6.10;99.90
45837;DHT22;31548;51.420;-0.040;2022-09-29T04:42:51;6.10;99.90
45837;DHT22;31548;51.420;-0.040;2022-09-29T04:45:19;6.10;99.90
45837;DHT22;31548;51.420;-0.040;2022-09-29T04:47:46;6.10;99.90
45837;DHT22;31548;51.420;-0.040;2022-09-29T04:50:13;6.20;99.90
45837;DHT22;31548;51.420;-0.040;2022-09-29T04:52:42;6.30;99.90
45837;DHT22;31548;51.420;-0.040;2022-09-29T04:55:10;6.20;99.90
45837;DHT22;31548;51.420;-0.040;2022-09-29T04:57:39;6.30;99.90
45837;DHT22;31548;51.420;-0.040;2022-09-29T05:00:07;6.40;99.90
45837;DHT22;31548;51.420;-0.040;2022-09-29T05:02:36;6.40;99.90
45837;DHT22;31548;51.420;-0.040;2022-09-29T05:05:04;6.50;99.90
45837;DHT22;31548;51.420;-0.040;2022-09-29T05:07:36;6.50;99.90
45837;DHT22;31548;51.420;-0.040;2022-09-29T05:10:05;6.60;99.90
45837;DHT22;31548;51.420;-0.040;2022-09-29T05:12:32;6.60;99.90
45837;DHT22;31548;51.420;-0.040;2022-09-29T05:14:59;6.60;99.90
45837;DHT22;31548;51.420;-0.040;2022-09-29T05:17:27;6.70;99.90
45837;DHT22;31548;51.420;-0.040;2022-09-29T05:19:54;6.70;99.90
45837;DHT22;31548;51.420;-0.040;2022-09-29T05:22:21;6.80;99.90
45837;DHT22;31548;51.420;-0.040;2022-09-29T05:24:53;6.80;99.90
45837;DHT22;31548;51.420;-0.040;2022-09-29T05:27:21;6.80;99.90
45837;DHT22;31548;51.420;-0.040;2022-09-29T05:29:48;6.90;99.90
45837;DHT22;31548;51.420;-0.040;2022-09-29T05:32:16;6.90;99.90
45837;DHT22;31548;51.420;-0.040;2022-09-29T05:34:43;7.00;99.90
45837;DHT22;31548;51.420;-0.040;2022-09-29T05:37:10;7.00;99.90
45837;DHT22;31548;51.420;-0.040;2022-09-29T05:39:38;7.00;99.90
45837;DHT22;31548;51.420;-0.040;2022-09-29T05:42:09;7.10;99.90
45837;DHT22;31548;51.420;-0.040;2022-09-29T05:44:37;7.10;99.90
45837;DHT22;31548;51.420;-0.040;2022-09-29T05:47:04;7.10;99.90
45837;DHT22;31548;51.420;-0.040;2022-09-29T05:49:32;7.10;99.90
45837;DHT22;31548;51.420;-0.040;2022-09-29T05:51:59;7.20;99.90
45837;DHT22;31548;51.420;-0.040;2022-09-29T05:54:27;7.20;99.90
45837;DHT22;31548;51.420;-0.040;2022-09-29T05:56:54;7.20;99.90
45837;DHT22;31548;51.420;-0.040;2022-09-29T05:59:22;7.20;99.90
45837;DHT22;31548;51.420;-0.040;2022-09-29T06:01:49;7.20;99.90
45837;DHT22;31548;51.420;-0.040;2022-09-29T06:04:16;7.30;99.90
45837;DHT22;31548;51.420;-0.040;2022-09-29T06:06:44;7.30;99.90
45837;DHT22;31548;51.420;-0.040;2022-09-29T06:09:13;7.30;99.90
45837;DHT22;31548;51.420;-0.040;2022-09-29T06:11:41;7.40;99.90
45837;DHT22;31548;51.420;-0.040;2022-09-29T06:14:08;7.40;99.90
45837;DHT22;31548;51.420;-0.040;2022-09-29T06:16:35;7.50;99.90
45837;DHT22;31548;51.420;-0.040;2022-09-29T06:19:03;7.50;99.90
45837;DHT22;31548;51.420;-0.040;2022-09-29T06:21:32;7.50;99.90
45837;DHT22;31548;51.420;-0.040;2022-09-29T06:24:01;7.50;99.90
45837;DHT22;31548;51.420;-0.040;2022-09-29T06:26:29;7.60;99.90
45837;DHT22;31548;51.420;-0.040;2022-09-29T06:28:56;7.60;99.90
45837;DHT22;31548;51.420;-0.040;2022-09-29T06:31:26;7.60;99.90
45837;DHT22;31548;51.420;-0.040;2022-09-29T06:33:58;7.70;99.90
45837;DHT22;31548;51.420;-0.040;2022-09-29T06:36:39;7.70;99.90
45837;DHT22;31548;51.420;-0.040;2022-09-29T06:39:26;7.80;99.90
45837;DHT22;31548;51.420;-0.040;2022-09-29T06:41:53;7.80;99.90
45837;DHT22;31548;51.420;-0.040;2022-09-29T06:44:26;7.80;99.90
45837;DHT22;31548;51.420;-0.040;2022-09-29T06:46:54;7.90;99.90
45837;DHT22;31548;51.420;-0.040;2022-09-29T06:49:22;7.90;99.90
45837;DHT22;31548;51.420;-0.040;2022-09-29T06:51:50;8.00;99.90
45837;DHT22;31548;51.420;-0.040;2022-09-29T06:54:20;8.00;99.90
45837;DHT22;31548;51.420;-0.040;2022-09-29T06:56:52;8.10;99.90
45837;DHT22;31548;51.420;-0.040;2022-09-29T06:59:19;8.10;99.90
45837;DHT22;31548;51.420;-0.040;2022-09-29T07:01:47;8.10;99.90
45837;DHT22;31548;51.420;-0.040;2022-09-29T07:04:18;8.20;99.90
45837;DHT22;31548;51.420;-0.040;2022-09-29T07:06:47;8.30;99.90
45837;DHT22;31548;51.420;-0.040;2022-09-29T07:09:15;8.30;99.90
45837;DHT22;31548;51.420;-0.040;2022-09-29T07:11:48;8.30;99.90
45837;DHT22;31548;51.420;-0.040;2022-09-29T07:14:17;8.40;99.90
45837;DHT22;31548;51.420;-0.040;2022-09-29T07:16:44;8.40;99.90
45837;DHT22;31548;51.420;-0.040;2022-09-29T07:19:15;8.50;99.90
45837;DHT22;31548;51.420;-0.040;2022-09-29T07:21:43;8.50;99.90
45837;DHT22;31548;51.420;-0.040;2022-09-29T07:24:10;8.60;99.90
45837;DHT22;31548;51.420;-0.040;2022-09-29T07:26:38;8.60;99.90
45837;DHT22;31548;51.420;-0.040;2022-09-29T07:29:06;8.70;99.90
45837;DHT22;31548;51.420;-0.040;2022-09-29T07:31:40;8.70;99.90
45837;DHT22;31548;51.420;-0.040;2022-09-29T07:34:18;8.80;99.90
45837;DHT22;31548;51.420;-0.040;2022-09-29T07:36:45;8.80;99.90
45837;DHT22;31548;51.420;-0.040;2022-09-29T07:39:12;8.90;99.90
45837;DHT22;31548;51.420;-0.040;2022-09-29T07:41:39;9.00;99.90
45837;DHT22;31548;51.420;-0.040;2022-09-29T07:44:07;9.10;99.90
45837;DHT22;31548;51.420;-0.040;2022-09-29T07:46:34;9.20;99.90
45837;DHT22;31548;51.420;-0.040;2022-09-29T07:49:03;9.20;99.90
45837;DHT22;31548;51.420;-0.040;2022-09-29T07:51:30;9.30;99.90
45837;DHT22;31548;51.420;-0.040;2022-09-29T07:54:03;9.30;99.90
45837;DHT22;31548;51.420;-0.040;2022-09-29T07:56:31;9.30;99.90
45837;DHT22;31548;51.420;-0.040;2022-09-29T07:58:59;9.30;99.90
45837;DHT22;31548;51.420;-0.040;2022-09-29T08:01:28;9.30;99.90
45837;DHT22;31548;51.420;-0.040;2022-09-29T08:03:56;9.30;99.90
45837;DHT22;31548;51.420;-0.040;2022-09-29T08:06:25;9.30;99.90
45837;DHT22;31548;51.420;-0.040;2022-09-29T08:08:52;9.30;99.90
45837;DHT22;31548;51.420;-0.040;2022-09-29T08:11:32;9.40;99.90
45837;DHT22;31548;51.420;-0.040;2022-09-29T08:14:00;9.40;99.90
45837;DHT22;31548;51.420;-0.040;2022-09-29T08:16:28;9.40;99.90
45837;DHT22;31548;51.420;-0.040;2022-09-29T08:18:56;9.40;99.90
45837;DHT22;31548;51.420;-0.040;2022-09-29T08:21:23;9.40;99.90
45837;DHT22;31548;51.420;-0.040;2022-09-29T08:23:51;9.50;99.90
45837;DHT22;31548;51.420;-0.040;2022-09-29T08:26:20;9.50;99.90
45837;DHT22;31548;51.420;-0.040;2022-09-29T08:29:06;9.50;99.90
45837;DHT22;31548;51.420;-0.040;2022-09-29T08:31:35;9.50;99.90
45837;DHT22;31548;51.420;-0.040;2022-09-29T08:34:06;9.60;99.90
45837;DHT22;31548;51.420;-0.040;2022-09-29T08:36:33;9.50;99.90
45837;DHT22;31548;51.420;-0.040;2022-09-29T08:39:03;9.60;99.90
45837;DHT22;31548;51.420;-0.040;2022-09-29T08:41:51;9.60;99.90
45837;DHT22;31548;51.420;-0.040;2022-09-29T08:50:05;9.80;99.90
45837;DHT22;31548;51.420;-0.040;2022-09-29T08:52:42;9.80;99.90
45837;DHT22;31548;51.420;-0.040;2022-09-29T08:57:54;9.90;99.90
45837;DHT22;31548;51.420;-0.040;2022-09-29T09:00:30;10.00;99.90
45837;DHT22;31548;51.420;-0.040;2022-09-29T09:05:50;10.10;99.90
45837;DHT22;31548;51.420;-0.040;2022-09-29T09:11:32;10.30;99.90
45837;DHT22;31548;51.420;-0.040;2022-09-29T09:14:34;10.40;99.90
45837;DHT22;31548;51.420;-0.040;2022-09-29T09:17:15;10.40;99.90
45837;DHT22;31548;51.420;-0.040;2022-09-29T09:20:11;10.50;99.90
45837;DHT22;31548;51.420;-0.040;2022-09-29T09:25:50;10.60;99.90
45837;DHT22;31548;51.420;-0.040;2022-09-29T09:28:29;10.70;99.90
45837;DHT22;31548;51.420;-0.040;2022-09-29T09:31:19;10.90;99.90
45837;DHT22;31548;51.420;-0.040;2022-09-29T09:34:04;11.00;99.90
45837;DHT22;31548;51.420;-0.040;2022-09-29T09:36:36;11.10;99.90
45837;DHT22;31548;51.420;-0.040;2022-09-29T09:41:42;11.20;99.90
45837;DHT22;31548;51.420;-0.040;2022-09-29T09:46:55;11.40;99.90
45837;DHT22;31548;51.420;-0.040;2022-09-29T09:49:30;11.50;99.90
45837;DHT22;31548;51.420;-0.040;2022-09-29T09:52:03;11.70;99.90
45837;DHT22;31548;51.420;-0.040;2022-09-29T09:54:41;11.90;99.90
45837;DHT22;31548;51.420;-0.040;2022-09-29T10:00:02;12.10;99.90
45837;DHT22;31548;51.420;-0.040;2022-09-29T10:02:45;12.20;99.90
45837;DHT22;31548;51.420;-0.040;2022-09-29T10:05:32;12.40;99.90
45837;DHT22;31548;51.420;-0.040;2022-09-29T10:08:03;12.50;99.90
45837;DHT22;31548;51.420;-0.040;2022-09-29T10:10:31;12.70;99.90
45837;DHT22;31548;51.420;-0.040;2022-09-29T10:13:05;12.70;99.90
45837;DHT22;31548;51.420;-0.040;2022-09-29T10:15:53;12.70;99.90
45837;DHT22;31548;51.420;-0.040;2022-09-29T10:18:23;12.80;99.90
45837;DHT22;31548;51.420;-0.040;2022-09-29T10:20:53;12.90;99.90
45837;DHT22;31548;51.420;-0.040;2022-09-29T10:23:35;13.10;99.90
45837;DHT22;31548;51.420;-0.040;2022-09-29T10:26:16;13.20;99.90
45837;DHT22;31548;51.420;-0.040;2022-09-29T10:28:49;13.30;99.90
45837;DHT22;31548;51.420;-0.040;2022-09-29T10:31:24;13.40;99.90
45837;DHT22;31548;51.420;-0.040;2022-09-29T10:33:59;13.40;99.90
45837;DHT22;31548;51.420;-0.040;2022-09-29T10:36:32;13.40;99.90
45837;DHT22;31548;51.420;-0.040;2022-09-29T10:39:00;13.50;99.90
45837;DHT22;31548;51.420;-0.040;2022-09-29T10:41:49;13.50;99.90
45837;DHT22;31548;51.420;-0.040;2022-09-29T10:44:20;13.50;99.90
45837;DHT22;31548;51.420;-0.040;2022-09-29T10:46:56;13.50;99.90
45837;DHT22;31548;51.420;-0.040;2022-09-29T10:49:25;13.60;99.90
45837;DHT22;31548;51.420;-0.040;2022-09-29T10:52:03;13.60;99.90
45837;DHT22;31548;51.420;-0.040;2022-09-29T10:54:37;13.80;99.90
45837;DHT22;31548;51.420;-0.040;2022-09-29T10:57:13;13.80;99.90
45837;DHT22;31548;51.420;-0.040;2022-09-29T10:59:47;13.80;99.90
45837;DHT22;31548;51.420;-0.040;2022-09-29T11:02:38;14.00;99.90
45837;DHT22;31548;51.420;-0.040;2022-09-29T11:05:20;14.10;99.90
45837;DHT22;31548;51.420;-0.040;2022-09-29T11:07:49;14.30;99.90
45837;DHT22;31548;51.420;-0.040;2022-09-29T11:10:37;14.30;99.90
45837;DHT22;31548;51.420;-0.040;2022-09-29T11:13:35;14.20;99.90
45837;DHT22;31548;51.420;-0.040;2022-09-29T11:16:17;14.30;99.90
45837;DHT22;31548;51.420;-0.040;2022-09-29T11:18:48;14.20;99.90
45837;DHT22;31548;51.420;-0.040;2022-09-29T11:24:01;14.10;99.90
45837;DHT22;31548;51.420;-0.040;2022-09-29T11:26:48;14.20;99.90
45837;DHT22;31548;51.420;-0.040;2022-09-29T11:29:34;14.20;99.90
45837;DHT22;31548;51.420;-0.040;2022-09-29T11:32:07;14.10;99.90
45837;DHT22;31548;51.420;-0.040;2022-09-29T11:46:13;13.90;99.90
45837;DHT22;31548;51.420;-0.040;2022-09-29T12:02:13;14.00;99.90
45837;DHT22;31548;51.420;-0.040;2022-09-29T12:05:05;14.10;99.90
45837;DHT22;31548;51.420;-0.040;2022-09-29T12:08:01;14.10;99.90
45837;DHT22;31548;51.420;-0.040;2022-09-29T12:16:11;14.50;99.90
45837;DHT22;31548;51.420;-0.040;2022-09-29T12:21:41;14.90;99.90
45837;DHT22;31548;51.420;-0.040;2022-09-29T12:24:19;15.10;99.90
45837;DHT22;31548;51.420;-0.040;2022-09-29T12:26:48;15.30;99.90
45837;DHT22;31548;51.420;-0.040;2022-09-29T12:32:04;15.00;99.90
45837;DHT22;31548;51.420;-0.040;2022-09-29T12:34:45;15.00;99.90
45837;DHT22;31548;51.420;-0.040;2022-09-29T12:37:22;15.20;99.90
45837;DHT22;31548;51.420;-0.040;2022-09-29T12:40:04;15.30;99.90
45837;DHT22;31548;51.420;-0.040;2022-09-29T12:45:47;15.40;99.90
45837;DHT22;31548;51.420;-0.040;2022-09-29T12:51:19;15.20;99.90
45837;DHT22;31548;51.420;-0.040;2022-09-29T12:57:03;15.40;99.90
45837;DHT22;31548;51.420;-0.040;2022-09-29T13:31:05;17.50;99.90
45837;DHT22;31548;51.420;-0.040;2022-09-29T13:33:35;17.70;99.70
45837;DHT22;31548;51.420;-0.040;2022-09-29T13:36:02;17.70;98.50
45837;DHT22;31548;51.420;-0.040;2022-09-29T13:38:32;17.50;98.20
45837;DHT22;31548;51.420;-0.040;2022-09-29T13:41:32;17.30;98.70
45837;DHT22;31548;51.420;-0.040;2022-09-29T13:44:05;17.00;98.80
45837;DHT22;31548;51.420;-0.040;2022-09-29T13:46:45;16.90;99.60
45837;DHT22;31548;51.420;-0.040;2022-09-29T13:49:24;17.10;99.80
45837;DHT22;31548;51.420;-0.040;2022-09-29T13:54:42;17.40;98.50
45837;DHT22;31548;51.420;-0.040;2022-09-29T14:00:03;17.80;99.40
45837;DHT22;31548;51.420;-0.040;2022-09-29T14:02:40;18.00;98.70
45837;DHT22;31548;51.420;-0.040;2022-09-29T14:10:39;18.00;97.30
45837;DHT22;31548;51.420;-0.040;2022-09-29T14:13:19;18.10;99.40
45837;DHT22;31548;51.420;-0.040;2022-09-29T14:18:37;18.20;95.60
45837;DHT22;31548;51.420;-0.040;2022-09-29T14:21:11;18.40;95.70
45837;DHT22;31548;51.420;-0.040;2022-09-29T14:29:34;18.20;96.30
45837;DHT22;31548;51.420;-0.040;2022-09-29T14:32:15;18.40;95.00
45837;DHT22;31548;51.420;-0.040;2022-09-29T14:34:44;18.20;94.60
45837;DHT22;31548;51.420;-0.040;2022-09-29T14:37:18;18.70;95.40
45837;DHT22;31548;51.420;-0.040;2022-09-29T14:39:46;19.10;94.00
45837;DHT22;31548;51.420;-0.040;2022-09-29T14:42:34;19.60;94.70
45837;DHT22;31548;51.420;-0.040;2022-09-29T14:45:04;20.20;96.60
45837;DHT22;31548;51.420;-0.040;2022-09-29T14:48:06;20.50;93.60
45837;DHT22;31548;51.420;-0.040;2022-09-29T14:51:33;20.60;93.40
45837;DHT22;31548;51.420;-0.040;2022-09-29T14:58:18;21.60;92.90
45837;DHT22;31548;51.420;-0.040;2022-09-29T15:00:54;21.60;92.40
45837;DHT22;31548;51.420;-0.040;2022-09-29T15:03:32;21.30;92.40
45837;DHT22;31548;51.420;-0.040;2022-09-29T15:06:05;21.00;92.40
45837;DHT22;31548;51.420;-0.040;2022-09-29T15:08:35;20.90;92.70
45837;DHT22;31548;51.420;-0.040;2022-09-29T15:11:25;21.10;92.00
45837;DHT22;31548;51.420;-0.040;2022-09-29T15:13:54;20.80;91.50
45837;DHT22;31548;51.420;-0.040;2022-09-29T15:17:40;20.40;91.80
45837;DHT22;31548;51.420;-0.040;2022-09-29T15:22:29;20.20;92.80
45837;DHT22;31548;51.420;-0.040;2022-09-29T15:25:33;20.60;92.50
45837;DHT22;31548;51.420;-0.040;2022-09-29T15:28:19;20.20;92.80
45837;DHT22;31548;51.420;-0.040;2022-09-29T15:30:49;19.70;94.50
45837;DHT22;31548;51.420;-0.040;2022-09-29T15:33:22;19.40;94.00
45837;DHT22;31548;51.420;-0.040;2022-09-29T15:35:55;19.40;93.50
45837;DHT22;31548;51.420;-0.040;2022-09-29T15:40:54;19.30;94.50
45837;DHT22;31548;51.420;-0.040;2022-09-29T15:43:27;19.10;95.50
45837;DHT22;31548;51.420;-0.040;2022-09-29T15:45:57;18.80;94.60
45837;DHT22;31548;51.420;-0.040;2022-09-29T15:48:29;18.40;93.00
45837;DHT22;31548;51.420;-0.040;2022-09-29T15:50:57;18.30;94.40
45837;DHT22;31548;51.420;-0.040;2022-09-29T15:53:25;18.80;93.30
45837;DHT22;31548;51.420;-0.040;2022-09-29T15:55:54;19.20;92.60
45837;DHT22;31548;51.420;-0.040;2022-09-29T16:00:58;20.10;92.20
45837;DHT22;31548;51.420;-0.040;2022-09-29T16:03:35;20.20;90.90
45837;DHT22;31548;51.420;-0.040;2022-09-29T16:06:20;20.70;91.00
45837;DHT22;31548;51.420;-0.040;2022-09-29T16:08:53;20.70;90.50
45837;DHT22;31548;51.420;-0.040;2022-09-29T16:11:29;20.80;90.30
45837;DHT22;31548;51.420;-0.040;2022-09-29T16:14:02;20.90;91.10
45837;DHT22;31548;51.420;-0.040;2022-09-29T16:16:39;20.90;90.40
45837;DHT22;31548;51.420;-0.040;2022-09-29T16:19:26;20.70;90.50
45837;DHT22;31548;51.420;-0.040;2022-09-29T16:21:57;20.20;91.60
45837;DHT22;31548;51.420;-0.040;2022-09-29T16:24:31;20.40;91.10
45837;DHT22;31548;51.420;-0.040;2022-09-29T16:27:00;20.40;91.10
45837;DHT22;31548;51.420;-0.040;2022-09-29T16:29:32;20.30;90.90
45837;DHT22;31548;51.420;-0.040;2022-09-29T16:35:36;19.80;91.00
45837;DHT22;31548;51.420;-0.040;2022-09-29T16:43:38;18.70;92.20
45837;DHT22;31548;51.420;-0.040;2022-09-29T16:46:12;18.40;93.00
45837;DHT22;31548;51.420;-0.040;2022-09-29T16:48:43;18.30;93.70
45837;DHT22;31548;51.420;-0.040;2022-09-29T16:51:17;18.00;94.00
45837;DHT22;31548;51.420;-0.040;2022-09-29T16:54:04;17.90;94.80
45837;DHT22;31548;51.420;-0.040;2022-09-29T16:56:32;17.70;95.20
45837;DHT22;31548;51.420;-0.040;2022-09-29T16:59:13;17.50;95.50
45837;DHT22;31548;51.420;-0.040;2022-09-29T17:01:43;17.30;95.60
45837;DHT22;31548;51.420;-0.040;2022-09-29T17:04:12;17.10;94.40
45837;DHT22;31548;51.420;-0.040;2022-09-29T17:06:44;16.90;94.10
45837;DHT22;31548;51.420;-0.040;2022-09-29T17:09:21;16.70;95.60
45837;DHT22;31548;51.420;-0.040;2022-09-29T17:11:51;16.60;96.10
45837;DHT22;31548;51.420;-0.040;2022-09-29T17:14:19;16.40;97.10
45837;DHT22;31548;51.420;-0.040;2022-09-29T17:16:48;16.20;96.70
45837;DHT22;31548;51.420;-0.040;2022-09-29T17:19:19;16.00;96.90
45837;DHT22;31548;51.420;-0.040;2022-09-29T17:21:48;15.90;97.40
45837;DHT22;31548;51.420;-0.040;2022-09-29T17:24:16;15.80;97.70
45837;DHT22;31548;51.420;-0.040;2022-09-29T17:26:45;15.70;98.00
45837;DHT22;31548;51.420;-0.040;2022-09-29T17:29:31;15.60;98.30
45837;DHT22;31548;51.420;-0.040;2022-09-29T17:31:58;15.60;98.90
45837;DHT22;31548;51.420;-0.040;2022-09-29T17:34:28;15.50;99.40
45837;DHT22;31548;51.420;-0.040;2022-09-29T17:36:59;15.40;98.90
45837;DHT22;31548;51.420;-0.040;2022-09-29T17:39:28;15.30;99.50
45837;DHT22;31548;51.420;-0.040;2022-09-29T17:41:56;15.30;99.90
45837;DHT22;31548;51.420;-0.040;2022-09-29T17:44:24;15.30;99.90
45837;DHT22;31548;51.420;-0.040;2022-09-29T17:46:54;15.10;99.90
45837;DHT22;31548;51.420;-0.040;2022-09-29T17:49:44;15.10;99.90
45837;DHT22;31548;51.420;-0.040;2022-09-29T17:52:16;14.90;99.90
45837;DHT22;31548;51.420;-0.040;2022-09-29T17:54:45;14.80;99.90
45837;DHT22;31548;51.420;-0.040;2022-09-29T17:57:22;14.70;99.90
45837;DHT22;31548;51.420;-0.040;2022-09-29T17:59:51;14.50;99.90
45837;DHT22;31548;51.420;-0.040;2022-09-29T18:02:19;14.50;99.90
45837;DHT22;31548;51.420;-0.040;2022-09-29T18:04:47;14.30;99.90
45837;DHT22;31548;51.420;-0.040;2022-09-29T18:07:15;14.20;99.90
45837;DHT22;31548;51.420;-0.040;2022-09-29T18:09:43;14.10;99.90
45837;DHT22;31548;51.420;-0.040;2022-09-29T18:12:11;14.00;99.90
45837;DHT22;31548;51.420;-0.040;2022-09-29T18:14:38;13.90;99.90
45837;DHT22;31548;51.420;-0.040;2022-09-29T18:17:05;13.90;99.90
45837;DHT22;31548;51.420;-0.040;2022-09-29T18:19:32;13.80;99.90
45837;DHT22;31548;51.420;-0.040;2022-09-29T18:22:01;13.70;99.90
45837;DHT22;31548;51.420;-0.040;2022-09-29T18:24:33;13.60;99.90
45837;DHT22;31548;51.420;-0.040;2022-09-29T18:27:00;13.50;99.90
45837;DHT22;31548;51.420;-0.040;2022-09-29T18:29:29;13.50;99.90
45837;DHT22;31548;51.420;-0.040;2022-09-29T18:31:58;13.30;99.90
45837;DHT22;31548;51.420;-0.040;2022-09-29T18:34:26;13.30;99.90
45837;DHT22;31548;51.420;-0.040;2022-09-29T18:36:57;13.20;99.90
45837;DHT22;31548;51.420;-0.040;2022-09-29T18:39:24;13.10;99.90
45837;DHT22;31548;51.420;-0.040;2022-09-29T18:41:51;13.10;99.90
45837;DHT22;31548;51.420;-0.040;2022-09-29T18:44:21;13.00;99.90
45837;DHT22;31548;51.420;-0.040;2022-09-29T18:46:50;12.90;99.90
45837;DHT22;31548;51.420;-0.040;2022-09-29T18:49:17;12.80;99.90
45837;DHT22;31548;51.420;-0.040;2022-09-29T18:51:45;12.80;99.90
45837;DHT22;31548;51.420;-0.040;2022-09-29T18:54:13;12.70;99.90
45837;DHT22;31548;51.420;-0.040;2022-09-29T18:56:40;12.70;99.90
45837;DHT22;31548;51.420;-0.040;2022-09-29T18:59:10;12.60;99.90